• Join FlightAware (Why Join?)
  • Login
  • US Flag 
07:03PM EST


 

Airport Tracker/Info


-or-


 

Live Flight TrackerFlight Track Log ✈ EJA829P ✈ 15-Nov-2013 ✈ KTOL - KRIC

Flight Track Log - Related Links

Times and Time Zones

All times are in EST time to prevent confusion due to time zone crossing. See the EJA829P flight status page for this flight to view local times or setup timezone preferences in your user account.

Time Position Orientation Groundspeed Altitude Reporting Facility
EST Latitude Longitude Course Direction KTS MPH feet Rate Location/Type
09:48AM 41.5306 -83.7908 113° Southeast 228 262 5,200  Level Cleveland Center
09:49AM 41.4944 -83.6778 113° Southeast 279 321 9,800 3,240 Climbing Cleveland Center
09:50AM 41.4600 -83.5708 113° Southeast 313 360 12,000 2,820 Climbing Cleveland Center
09:51AM 41.4225 -83.4544 113° Southeast 341 392 15,700 2,400 Climbing Cleveland Center
09:52AM 41.3831 -83.3333 113° Southeast 355 409 17,000 660 Climbing Cleveland Center
09:53AM 41.3428 -83.2128 114° Southeast 358 412 17,100 1,080 Climbing Cleveland Center
09:54AM 41.2978 -83.0756 114° Southeast 370 426 19,300 2,220 Climbing Cleveland Center
09:55AM 41.2569 -82.9492 113° Southeast 370 426 21,800 2,520 Climbing Cleveland Center
09:56AM 41.2044 -82.7911 114° Southeast 393 452 24,600 2,400 Climbing Cleveland Center
09:57AM 41.1725 -82.6436 106° East 411 473 26,800 2,340 Climbing Cleveland Center
09:58AM 41.1433 -82.4914 104° East 420 483 29,500 2,460 Climbing Cleveland Center
09:59AM 41.1053 -82.3447 109° East 417 480 31,900 2,280 Climbing Cleveland Center
10:00AM 41.0525 -82.2078 117° Southeast 415 478 34,300 1,500 Climbing Cleveland Center
10:01AM 40.9969 -82.0683 118° Southeast 424 488 35,000 300 Climbing Cleveland Center
10:02AM 40.9364 -81.9169 118° Southeast 460 529 35,000 -660 Level Cleveland Center
10:03AM 40.8586 -81.7428 121° Southeast 464 534 33,700 -1,020 Descending Cleveland Center
10:04AM 40.7775 -81.6236 132° Southeast 436 502 33,000 -360 Descending Cleveland Center
10:05AM 40.6975 -81.5044 132° Southeast 432 497 33,000  Level Cleveland Center
10:07AM 40.6164 -81.3833 131° Southeast 437 503 33,000  Level Cleveland Center
10:08AM 40.5389 -81.2694 132° Southeast 438 504 33,000  Level Cleveland Center
10:09AM 40.4428 -81.1278 132° Southeast 435 501 33,000  Level Cleveland Center
10:10AM 40.3542 -81.0258 139° Southeast 431 496 33,000 -600 Level Cleveland Center
10:11AM 40.2558 -80.9444 148° Southeast 419 482 31,800 -1,020 Descending Cleveland Center
10:12AM 40.1536 -80.8622 148° Southeast 430 495 31,000 -420 Descending Cleveland Center
10:13AM 40.0519 -80.7797 148° Southeast 433 498 31,000  Level Cleveland Center
10:14AM 39.9294 -80.6806 148° Southeast 435 501 31,000  Level Cleveland Center
10:15AM 39.8278 -80.5983 148° Southeast 433 498 31,000  Level Cleveland Center
10:16AM 39.7256 -80.5172 149° Southeast 433 498 31,000  Level Cleveland Center
10:17AM 39.6236 -80.4361 148° Southeast 432 497 31,000  Level Cleveland Center
10:18AM 39.5219 -80.3558 149° Southeast 431 496 31,000  Level Cleveland Center
10:19AM 39.4386 -80.2892 148° Southeast 426 490 31,000  Level Washington Center
10:20AM 39.3356 -80.2072 148° Southeast 431 496 31,000  Level Washington Center
10:21AM 39.2344 -80.1258 148° Southeast 431 496 31,000  Level Washington Center
10:22AM 39.1311 -80.0444 149° Southeast 426 490 31,000  Level Washington Center
10:23AM 39.0114 -79.9594 151° Southeast 433 498 31,000 -600 Level Washington Center
10:24AM 38.9178 -79.8900 150° Southeast 433 498 29,900 -1,380 Descending Washington Center
10:25AM 38.8186 -79.8122 149° Southeast 428 493 28,200 -1,440 Descending Washington Center
10:26AM 38.7150 -79.7317 149° Southeast 428 493 27,000 -600 Descending Washington Center
10:27AM 38.6133 -79.6544 149° Southeast 428 493 27,000  Level Washington Center
10:28AM 38.5036 -79.5661 148° Southeast 428 493 27,000 -600 Level Washington Center
10:29AM 38.4019 -79.4892 149° Southeast 428 493 25,900 -1,380 Descending Washington Center
10:30AM 38.3003 -79.4122 149° Southeast 428 493 24,300 -1,200 Descending Washington Center
10:31AM 38.2025 -79.3358 148° Southeast 428 493 23,600 -1,020 Descending Washington Center
10:32AM 38.1067 -79.2625 149° Southeast 423 487 22,300 -1,260 Descending Washington Center
10:33AM 38.0231 -79.1978 149° Southeast 404 465 21,100 -660 Descending Washington Center
10:34AM 37.9294 -79.1247 148° Southeast 398 458 21,000 -60 Descending Washington Center
10:35AM 37.8725 -79.0011 120° Southeast 387 445 21,000 -60 Level Washington Center
10:36AM 37.8344 -78.8653 109° East 387 445 20,900 -1,080 Descending Washington Center
10:37AM 37.7944 -78.7322 111° Southeast 399 459 18,900 -2,220 Descending Washington Center
10:38AM 37.7542 -78.5886 109° East 399 459 16,600 -2,220 Descending Washington Center
10:39AM 37.7197 -78.4664 110° East 385 443 14,500 -2,040 Descending Washington Center
10:40AM 37.6847 -78.3497 111° Southeast 371 427 12,600 -1,920 Descending Washington Center
10:41AM 37.6500 -78.2331 111° Southeast 358 412 10,800 -1,680 Descending Washington Center
10:42AM 37.6206 -78.1403 112° Southeast 337 388 9,300 -900 Descending Washington Center
10:43AM 37.5914 -78.0422 111° Southeast 314 361 9,000 -1,020 Descending Washington Center
10:44AM 37.5933 -77.9403 89° East 288 331 7,300 -1,020 Descending Washington Center
10:45AM 37.6100 -77.8386 78° East 288 331 7,000 -960 Descending Washington Center
10:46AM 37.6244 -77.7367 80° East 288 331 5,400 -1,620 Descending Washington Center
10:47AM 37.6364 -77.6372 81° East 294 338 3,800 -1,260 Descending Washington Center
10:48AM 37.6275 -77.5453 97° East 276 318 2,900 -900 Descending Washington Center
10:49AM 37.6206 -77.4639 96° East 253 291 2,100 -420 Descending Washington Center
10:50AM 37.6028 -77.3978 109° East 221 254 2,100 -240 Level Washington Center
10:51AM 37.5500 -77.3167 129° Southeast 135 155 1,500 -600 Descending Potomac TRACON
10:52AM 37.5333 -77.3167 180° South 104 120 500 -1,020 Descending Potomac TRACON
10:54AM 37.5000 -77.3167 117° Southeast  Level FlightAware Approximate
11:01AM 37.5052 -77.3197 117° Southeast  Level Estimated